Time;durP1;ratioP1;P1;durP2;ratioP2;P2;SDS_P1;SDS_P2;PMS_P1;PMS_P2;Temp;Humidity;BMP_temperature;BMP_pressure;BME280_temperature;BME280_humidity;BME280_pressure;Samples;Min_cycle;Max_cycle;Signal;HPM_P1;HPM_P2
2023/05/30 00:02:03;;;;;;;7.70;1.90;;;;;;;14.79;46.94;102233.78;4894554;28;97594;-50
2023/05/30 00:04:30;;;;;;;7.40;2.60;;;;;;;14.76;47.05;102238.31;4894076;28;97329;-47
2023/05/30 00:06:55;;;;;;;9.07;1.70;;;;;;;14.74;47.23;102232.47;4892341;28;97396;-51
2023/05/30 00:09:20;;;;;;;8.00;1.90;;;;;;;14.73;47.28;102233.72;4893851;28;97415;-49
2023/05/30 00:11:46;;;;;;;5.67;1.60;;;;;;;14.74;47.39;102228.94;4894037;28;97350;-50
2023/05/30 00:14:11;;;;;;;4.10;1.77;;;;;;;14.73;47.30;102233.72;4891131;28;97538;-50
2023/05/30 00:16:38;;;;;;;5.23;2.33;;;;;;;14.71;47.23;102227.13;4894348;28;99445;-49
2023/05/30 00:19:04;;;;;;;5.93;2.00;;;;;;;14.66;47.39;102223.03;4894922;28;97076;-50
2023/05/30 00:21:31;;;;;;;3.93;2.23;;;;;;;14.63;47.37;102226.03;4895003;28;97168;-49
2023/05/30 00:23:56;;;;;;;4.40;1.57;;;;;;;14.62;47.57;102224.47;4892121;28;97816;-48
2023/05/30 00:26:22;;;;;;;5.10;2.20;;;;;;;14.60;47.21;102224.22;4892037;28;98112;-54
2023/05/30 00:28:47;;;;;;;8.10;1.90;;;;;;;14.54;47.61;102224.13;4893819;28;97094;-46
2023/05/30 00:31:12;;;;;;;7.43;1.70;;;;;;;14.52;47.76;102226.63;4895341;28;97407;-50
2023/05/30 00:33:38;;;;;;;13.10;2.43;;;;;;;14.49;47.78;102233.13;4891927;28;100421;-50
2023/05/30 00:36:03;;;;;;;4.30;1.50;;;;;;;14.47;47.69;102235.59;4892094;28;105882;-48
2023/05/30 00:38:28;;;;;;;7.30;2.10;;;;;;;14.43;47.79;102232.28;4894292;28;97068;-49
2023/05/30 00:40:54;;;;;;;7.20;2.23;;;;;;;14.37;47.86;102231.44;4891823;28;96940;-49
2023/05/30 00:43:19;;;;;;;7.57;2.00;;;;;;;14.31;48.18;102244.41;4894001;28;97172;-48
2023/05/30 00:45:49;;;;;;;3.87;1.80;;;;;;;14.27;48.16;102250.13;4897963;28;96656;-50
2023/05/30 00:48:14;;;;;;;5.23;1.60;;;;;;;14.25;48.17;102251.84;4895798;28;96817;-47
2023/05/30 00:50:40;;;;;;;6.77;1.80;;;;;;;14.26;48.02;102264.47;4895344;28;98211;-48
2023/05/30 00:53:06;;;;;;;8.43;2.10;;;;;;;14.25;48.27;102258.16;4892772;28;97441;-52
2023/05/30 00:55:32;;;;;;;3.97;1.60;;;;;;;14.24;48.44;102255.88;4895070;28;97642;-52
2023/05/30 00:57:58;;;;;;;11.87;2.30;;;;;;;14.22;48.35;102247.25;4896252;28;97374;-50
2023/05/30 01:00:26;;;;;;;6.53;1.90;;;;;;;14.18;48.33;102257.75;4891548;28;97226;-52
2023/05/30 01:02:56;;;;;;;9.33;2.23;;;;;;;14.13;48.35;102263.97;4894095;28;98710;-50
2023/05/30 01:05:24;;;;;;;6.93;2.03;;;;;;;14.07;48.57;102249.25;4894457;28;97052;-52
2023/05/30 01:07:50;;;;;;;4.67;1.50;;;;;;;14.05;48.62;102251.75;4898308;28;99035;-50
2023/05/30 01:10:16;;;;;;;5.80;1.60;;;;;;;14.02;48.69;102255.50;4893776;28;97339;-47
2023/05/30 01:13:03;;;;;;;10.10;2.00;;;;;;;14.02;48.90;102252.72;4891248;28;97694;-47
2023/05/30 01:15:56;;;;;;;7.13;2.13;;;;;;;13.99;49.65;102256.44;4894952;28;97467;-47
2023/05/30 01:18:37;;;;;;;8.13;1.90;;;;;;;13.97;49.28;102248.63;4892603;28;96994;-46
2023/05/30 01:21:11;;;;;;;7.90;2.00;;;;;;;13.89;48.76;102252.25;4892374;28;97034;-52
2023/05/30 01:23:49;;;;;;;4.80;1.70;;;;;;;13.83;50.01;102246.59;4894826;28;97601;-48
2023/05/30 01:26:26;;;;;;;7.67;2.00;;;;;;;13.82;49.54;102249.84;4891678;28;96907;-48
2023/05/30 01:28:54;;;;;;;4.93;1.93;;;;;;;13.77;48.88;102254.03;4895668;28;96872;-46
2023/05/30 01:31:21;;;;;;;7.00;1.87;;;;;;;13.76;48.92;102246.97;4891082;28;96985;-48
2023/05/30 01:33:48;;;;;;;6.03;1.80;;;;;;;13.74;48.82;102248.69;4894092;28;97756;-53
2023/05/30 01:36:13;;;;;;;10.97;1.90;;;;;;;13.70;48.96;102242.56;4890788;28;98365;-51
2023/05/30 01:38:38;;;;;;;5.80;1.80;;;;;;;13.67;48.78;102249.84;4892722;28;97136;-46
2023/05/30 01:41:09;;;;;;;5.37;1.67;;;;;;;13.62;48.72;102247.72;4891805;28;97238;-49
2023/05/30 01:44:11;;;;;;;5.53;1.90;;;;;;;13.52;49.91;102241.50;4893200;28;97260;-47
2023/05/30 01:46:45;;;;;;;10.03;1.87;;;;;;;13.45;49.24;102249.41;4893571;28;97573;-50
2023/05/30 01:49:29;;;;;;;2.90;1.53;;;;;;;13.41;50.43;102252.34;4894894;28;97271;-50
2023/05/30 01:51:59;;;;;;;5.60;1.90;;;;;;;13.38;49.41;102241.47;4895263;28;96983;-47
2023/05/30 01:54:27;;;;;;;5.57;2.40;;;;;;;13.34;49.11;102244.44;4896442;28;97443;-50
2023/05/30 01:56:57;;;;;;;6.03;2.20;;;;;;;13.27;49.45;102250.31;4895289;28;97513;-46
2023/05/30 01:59:25;;;;;;;5.13;1.70;;;;;;;13.22;49.35;102250.19;4895470;28;97205;-50
2023/05/30 02:01:53;;;;;;;3.43;1.70;;;;;;;13.21;49.51;102256.97;4896442;28;97079;-50
2023/05/30 02:04:18;;;;;;;8.00;2.00;;;;;;;13.17;49.58;102251.59;4894304;28;97153;-49
2023/05/30 02:06:43;;;;;;;5.60;2.07;;;;;;;13.15;49.57;102261.63;4894346;28;97179;-48
2023/05/30 02:09:09;;;;;;;8.83;2.17;;;;;;;13.12;49.80;102249.50;4893716;28;97076;-47
2023/05/30 02:11:34;;;;;;;7.80;2.37;;;;;;;13.13;49.85;102251.00;4897110;28;97130;-52
2023/05/30 02:14:00;;;;;;;7.23;1.90;;;;;;;13.12;49.68;102255.03;4893971;28;96998;-49
2023/05/30 02:16:25;;;;;;;4.57;2.00;;;;;;;13.10;49.66;102253.97;4893804;28;97999;-51
2023/05/30 02:18:52;;;;;;;6.87;2.20;;;;;;;13.07;49.92;102252.91;4898014;28;98956;-47
2023/05/30 02:21:18;;;;;;;3.20;1.50;;;;;;;13.08;49.80;102259.97;4897315;28;96798;-49
2023/05/30 02:23:44;;;;;;;5.33;1.57;;;;;;;13.08;49.90;102253.69;4894201;28;97287;-47
2023/05/30 02:26:09;;;;;;;7.30;2.30;;;;;;;13.08;49.69;102259.19;4896069;28;96808;-46
2023/05/30 02:28:35;;;;;;;7.47;2.20;;;;;;;13.06;49.87;102256.16;4895842;28;99043;-48
2023/05/30 02:31:02;;;;;;;11.87;2.23;;;;;;;13.02;49.88;102259.03;4896611;28;97148;-49
2023/05/30 02:33:27;;;;;;;7.10;2.00;;;;;;;12.98;49.90;102258.44;4895697;28;97789;-52
2023/05/30 02:35:52;;;;;;;6.83;1.77;;;;;;;12.94;49.92;102263.41;4892510;28;103826;-48
2023/05/30 02:38:18;;;;;;;5.30;1.63;;;;;;;12.91;50.05;102260.81;4897152;28;97424;-51
2023/05/30 02:40:43;;;;;;;5.23;1.97;;;;;;;12.88;50.22;102258.97;4893996;28;98868;-46
2023/05/30 02:43:08;;;;;;;5.33;2.00;;;;;;;12.84;50.17;102270.22;4896324;28;97864;-47
2023/05/30 02:45:34;;;;;;;8.13;1.70;;;;;;;12.82;50.27;102262.38;4896344;28;97010;-50
2023/05/30 02:47:59;;;;;;;9.23;1.80;;;;;;;12.82;50.19;102278.19;4898312;28;97250;-48
2023/05/30 02:50:24;;;;;;;4.27;1.90;;;;;;;12.80;50.20;102272.34;4897277;28;97400;-47
2023/05/30 02:52:50;;;;;;;7.40;2.27;;;;;;;12.78;50.18;102266.53;4895969;28;97059;-46
2023/05/30 02:55:15;;;;;;;8.33;1.90;;;;;;;12.82;50.45;102273.41;4894451;28;97490;-53
2023/05/30 02:57:41;;;;;;;5.90;1.90;;;;;;;12.83;50.19;102271.44;4893437;28;97869;-51
2023/05/30 03:00:09;;;;;;;5.93;2.60;;;;;;;12.82;50.47;102276.19;4893698;28;97009;-50
2023/05/30 03:02:35;;;;;;;10.90;2.53;;;;;;;12.79;50.36;102279.13;4891778;28;96798;-50
2023/05/30 03:05:00;;;;;;;9.40;2.70;;;;;;;12.79;50.36;102279.91;4892795;28;97585;-50
2023/05/30 03:07:26;;;;;;;4.60;2.07;;;;;;;12.78;50.35;102300.44;4892818;28;97092;-47
2023/05/30 03:09:52;;;;;;;11.33;2.30;;;;;;;12.76;50.49;102286.34;4900216;28;97541;-47
2023/05/30 03:12:19;;;;;;;8.23;1.67;;;;;;;12.74;50.53;102288.03;4892563;28;97752;-50
2023/05/30 03:14:45;;;;;;;2.70;1.57;;;;;;;12.73;50.54;102278.25;4894578;28;97371;-48
2023/05/30 03:17:10;;;;;;;3.07;1.50;;;;;;;12.71;50.75;102281.44;4893520;28;97081;-47
2023/05/30 03:19:36;;;;;;;6.83;2.00;;;;;;;12.69;50.71;102286.69;4893786;28;97289;-50
2023/05/30 03:22:01;;;;;;;2.83;1.60;;;;;;;12.72;50.58;102293.28;4895666;28;97166;-51
2023/05/30 03:24:29;;;;;;;5.20;2.17;;;;;;;12.74;50.74;102299.09;4892920;28;97096;-51
2023/05/30 03:26:54;;;;;;;3.47;2.03;;;;;;;12.74;50.61;102299.09;4895391;28;96793;-47
2023/05/30 03:29:20;;;;;;;2.70;1.60;;;;;;;12.73;50.58;102298.31;4896241;28;99961;-49
2023/05/30 03:31:45;;;;;;;5.80;1.70;;;;;;;12.69;50.77;102302.47;4895039;28;97279;-48
2023/05/30 03:34:11;;;;;;;5.83;1.97;;;;;;;12.67;50.58;102305.72;4894909;28;97095;-50
2023/05/30 03:36:36;;;;;;;7.07;2.43;;;;;;;12.65;50.76;102305.41;4893577;28;97371;-49
2023/05/30 03:39:01;;;;;;;9.03;2.70;;;;;;;12.65;50.79;102305.41;4894769;28;97092;-49
2023/05/30 03:41:27;;;;;;;4.30;2.03;;;;;;;12.62;51.05;102306.34;4893093;28;98423;-49
2023/05/30 03:43:52;;;;;;;7.23;2.30;;;;;;;12.62;51.09;102311.13;4895348;28;96972;-51
2023/05/30 03:46:19;;;;;;;6.83;2.20;;;;;;;12.60;51.06;102310.81;4892000;28;97253;-47
2023/05/30 03:48:47;;;;;;;5.30;2.00;;;;;;;12.62;51.24;102319.41;4890835;28;99408;-53
2023/05/30 03:51:13;;;;;;;5.57;1.93;;;;;;;12.64;50.72;102328.00;4892471;28;97372;-50
2023/05/30 03:53:38;;;;;;;6.37;2.70;;;;;;;12.60;50.80;102317.09;4893322;28;97184;-50
2023/05/30 03:56:05;;;;;;;7.67;2.13;;;;;;;12.58;51.09;102311.28;4894332;28;97346;-47
2023/05/30 03:58:31;;;;;;;5.73;2.50;;;;;;;12.59;51.16;102314.81;4893477;28;97085;-51
2023/05/30 04:01:00;;;;;;;5.60;2.20;;;;;;;12.61;51.09;102320.63;4892295;28;97409;-47
2023/05/30 04:03:26;;;;;;;6.63;2.10;;;;;;;12.65;51.00;102327.50;4892140;28;98412;-51
2023/05/30 04:05:52;;;;;;;4.60;2.13;;;;;;;12.69;51.29;102327.34;4894425;28;97133;-51
2023/05/30 04:08:17;;;;;;;3.23;1.87;;;;;;;12.69;51.24;102325.34;4894680;28;97338;-49
2023/05/30 04:10:43;;;;;;;5.70;1.90;;;;;;;12.68;51.28;102331.34;4892443;28;108883;-49
2023/05/30 04:13:08;;;;;;;6.90;2.20;;;;;;;12.70;51.27;102331.63;4891467;28;97252;-55
2023/05/30 04:15:33;;;;;;;3.90;1.80;;;;;;;12.71;51.29;102328.41;4894424;28;96807;-49
2023/05/30 04:18:01;;;;;;;4.77;2.10;;;;;;;12.70;51.15;102326.88;4898485;28;97086;-49
2023/05/30 04:20:26;;;;;;;8.10;2.37;;;;;;;12.69;51.37;102343.91;4894492;28;97683;-49
2023/05/30 04:22:52;;;;;;;9.13;2.23;;;;;;;12.70;51.46;102343.47;4894604;28;97521;-52
2023/05/30 04:25:18;;;;;;;5.30;2.37;;;;;;;12.72;51.63;102340.22;4895302;28;97573;-47
2023/05/30 04:27:43;;;;;;;6.13;2.60;;;;;;;12.74;51.80;102335.00;4895784;28;97034;-48
2023/05/30 04:30:10;;;;;;;9.80;2.27;;;;;;;12.76;51.72;102330.53;4892300;28;96699;-47
2023/05/30 04:32:36;;;;;;;6.00;2.50;;;;;;;12.79;51.80;102343.44;4891130;28;96700;-50
2023/05/30 04:35:05;;;;;;;3.27;2.00;;;;;;;12.89;51.68;102343.41;4895586;28;96975;-49
2023/05/30 04:37:30;;;;;;;3.87;1.90;;;;;;;12.90;51.73;102345.69;4891256;28;97810;-47
2023/05/30 04:39:56;;;;;;;4.30;2.00;;;;;;;12.93;51.78;102344.00;4894792;28;97283;-48
2023/05/30 04:42:28;;;;;;;8.13;2.50;;;;;;;12.97;52.10;102344.59;4897596;28;97074;-46
2023/05/30 04:44:54;;;;;;;5.73;1.90;;;;;;;12.98;51.56;102346.09;4891905;28;96799;-51
2023/05/30 04:47:23;;;;;;;3.70;1.80;;;;;;;12.95;51.79;102350.59;4893060;28;97018;-48
2023/05/30 04:49:53;;;;;;;5.73;2.10;;;;;;;12.99;51.87;102345.66;4894486;28;98607;-50
2023/05/30 04:52:19;;;;;;;7.40;2.40;;;;;;;13.02;51.99;102352.25;4893378;28;97121;-50
2023/05/30 04:54:45;;;;;;;5.60;2.03;;;;;;;13.08;52.21;102355.91;4891096;28;96863;-50
2023/05/30 04:57:10;;;;;;;4.03;2.20;;;;;;;13.14;51.95;102354.81;4897508;28;97247;-47
2023/05/30 04:59:35;;;;;;;6.73;2.43;;;;;;;13.16;52.10;102352.34;4892422;28;97252;-52
2023/05/30 05:02:01;;;;;;;5.37;2.13;;;;;;;13.20;52.12;102352.16;4892721;28;108334;-49
2023/05/30 05:04:26;;;;;;;6.60;2.40;;;;;;;13.24;52.13;102355.50;4892855;28;96874;-48
2023/05/30 05:06:52;;;;;;;7.60;2.30;;;;;;;13.28;52.26;102343.03;4894631;28;97290;-47
2023/05/30 05:09:18;;;;;;;6.40;1.80;;;;;;;13.34;52.26;102340.41;4893964;28;96805;-50
2023/05/30 05:11:43;;;;;;;8.40;2.53;;;;;;;13.38;52.32;102346.53;4900462;28;97448;-49
2023/05/30 05:14:09;;;;;;;7.30;2.50;;;;;;;13.38;52.17;102344.53;4891088;28;96981;-47
2023/05/30 05:16:34;;;;;;;7.63;2.43;;;;;;;13.41;52.25;102345.59;4894359;28;97017;-53
2023/05/30 05:18:59;;;;;;;8.10;2.50;;;;;;;13.47;52.44;102349.25;4886942;28;107558;-50
2023/05/30 05:21:25;;;;;;;6.07;2.30;;;;;;;13.54;52.40;102349.63;4890978;28;96661;-50
2023/05/30 05:23:50;;;;;;;3.50;1.93;;;;;;;13.63;52.38;102364.66;4891568;28;97118;-52
2023/05/30 05:26:17;;;;;;;6.33;1.87;;;;;;;13.70;52.43;102342.91;4892599;28;98156;-48
2023/05/30 05:28:42;;;;;;;5.37;2.07;;;;;;;13.77;52.21;102352.84;4894037;28;97652;-48
2023/05/30 05:31:08;;;;;;;7.60;2.20;;;;;;;13.77;52.28;102339.03;4890141;28;97800;-46
2023/05/30 05:33:33;;;;;;;3.07;1.90;;;;;;;13.83;52.38;102348.19;4893540;28;96789;-49
2023/05/30 05:35:59;;;;;;;7.97;2.53;;;;;;;13.88;52.36;102353.06;4894451;28;97203;-47
2023/05/30 05:38:24;;;;;;;2.20;1.90;;;;;;;13.95;52.52;102341.66;4894320;28;97441;-47
2023/05/30 05:40:50;;;;;;;7.90;2.33;;;;;;;14.05;52.63;102343.09;4891399;28;103085;-47
2023/05/30 05:43:15;;;;;;;5.23;2.30;;;;;;;14.12;52.50;102342.72;4891225;28;97305;-49
2023/05/30 05:45:40;;;;;;;2.50;1.97;;;;;;;14.17;52.51;102345.59;4892251;28;96923;-52
2023/05/30 05:48:06;;;;;;;7.40;2.63;;;;;;;14.26;52.44;102350.28;4890720;28;97083;-50
2023/05/30 05:50:31;;;;;;;5.43;2.30;;;;;;;14.26;52.40;102347.50;4890496;28;97429;-50
2023/05/30 05:52:56;;;;;;;6.00;1.93;;;;;;;14.31;52.42;102360.69;4890069;28;97064;-49
2023/05/30 05:55:22;;;;;;;3.33;1.80;;;;;;;14.37;52.35;102361.59;4890731;28;97457;-51
2023/05/30 05:57:47;;;;;;;5.07;2.23;;;;;;;14.42;52.32;102362.91;4897958;28;104625;-46
2023/05/30 06:00:15;;;;;;;5.10;2.37;;;;;;;14.45;52.40;102357.19;4890745;28;97342;-49
2023/05/30 06:02:40;;;;;;;3.83;1.90;;;;;;;14.50;52.37;102362.06;4892835;28;97270;-50
2023/05/30 06:05:07;;;;;;;3.77;1.93;;;;;;;14.60;52.37;102366.25;4893608;28;97276;-51
2023/05/30 06:07:34;;;;;;;4.63;2.10;;;;;;;14.70;52.34;102372.47;4890572;28;97433;-50
2023/05/30 06:09:59;;;;;;;5.40;2.00;;;;;;;14.81;52.21;102372.63;4890899;28;97162;-47
2023/05/30 06:12:24;;;;;;;3.63;1.80;;;;;;;14.88;52.04;102380.53;4891587;28;99249;-49
2023/05/30 06:14:50;;;;;;;4.87;2.20;;;;;;;14.93;52.04;102371.56;4893116;28;97592;-46
2023/05/30 06:17:15;;;;;;;5.10;2.00;;;;;;;14.98;51.98;102379.22;4892965;28;98773;-51
2023/05/30 06:19:41;;;;;;;6.30;2.57;;;;;;;15.02;51.94;102366.69;4891210;28;97349;-51
2023/05/30 06:22:07;;;;;;;7.23;2.17;;;;;;;15.12;51.95;102377.63;4892849;28;97315;-48
2023/05/30 06:24:33;;;;;;;10.40;2.10;;;;;;;15.23;51.90;102377.78;4889898;28;96950;-49
2023/05/30 06:26:58;;;;;;;5.37;2.03;;;;;;;15.26;51.91;102379.59;4892626;28;98843;-50
2023/05/30 06:29:23;;;;;;;4.00;2.17;;;;;;;15.34;51.79;102375.19;4891994;28;97215;-51
2023/05/30 06:31:49;;;;;;;4.70;1.97;;;;;;;15.40;51.83;102379.53;4891084;28;97065;-46
2023/05/30 06:34:14;;;;;;;6.50;2.30;;;;;;;15.41;51.80;102372.00;4893473;28;96968;-49
2023/05/30 06:36:40;;;;;;;7.90;2.50;;;;;;;15.50;51.38;102377.44;4889141;28;97795;-49
2023/05/30 06:39:05;;;;;;;4.10;2.00;;;;;;;15.52;51.60;102375.72;4892440;28;97294;-47
2023/05/30 06:41:31;;;;;;;2.67;1.63;;;;;;;15.55;51.55;102380.28;4893147;28;97326;-48
2023/05/30 06:43:56;;;;;;;6.97;2.10;;;;;;;15.61;51.55;102372.81;4895611;28;96986;-48
2023/05/30 06:46:21;;;;;;;4.30;2.23;;;;;;;15.74;51.44;102372.47;4892313;28;97926;-46
2023/05/30 06:48:47;;;;;;;4.30;2.00;;;;;;;15.79;51.23;102374.53;4893295;28;97007;-49
2023/05/30 06:51:12;;;;;;;5.47;2.17;;;;;;;15.85;51.23;102372.59;4896847;28;97502;-52
2023/05/30 06:53:38;;;;;;;2.80;1.60;;;;;;;15.80;51.23;102370.50;4897755;28;97685;-47
2023/05/30 06:56:03;;;;;;;4.87;1.80;;;;;;;15.74;51.24;102378.00;4898064;28;97569;-51
2023/05/30 06:58:28;;;;;;;3.47;2.03;;;;;;;15.82;51.37;102376.34;4894633;28;98095;-49
2023/05/30 07:00:54;;;;;;;4.73;1.73;;;;;;;15.91;51.40;102376.19;4894151;28;97184;-46
2023/05/30 07:03:19;;;;;;;4.93;2.10;;;;;;;15.90;51.20;102382.22;4894171;28;97142;-48
2023/05/30 07:05:44;;;;;;;6.23;2.10;;;;;;;15.94;51.28;102377.22;4896582;28;97290;-49
2023/05/30 07:08:10;;;;;;;4.80;1.63;;;;;;;16.04;51.34;102384.91;4893417;28;99678;-49
2023/05/30 07:10:35;;;;;;;10.40;2.90;;;;;;;16.13;51.20;102384.00;4898443;28;97644;-47
2023/05/30 07:13:01;;;;;;;2.43;1.70;;;;;;;16.18;51.28;102383.31;4891369;28;97294;-48
2023/05/30 07:15:27;;;;;;;2.90;2.20;;;;;;;16.15;51.10;102384.25;4897098;28;97324;-48
2023/05/30 07:17:52;;;;;;;4.47;2.30;;;;;;;16.17;51.20;102385.31;4894526;28;97266;-50
2023/05/30 07:20:22;;;;;;;3.50;1.97;;;;;;;16.24;51.23;102392.44;4893340;28;97341;-51
2023/05/30 07:22:48;;;;;;;6.00;2.43;;;;;;;16.31;51.00;102378.91;4895036;28;97019;-49
2023/05/30 07:25:13;;;;;;;5.23;2.17;;;;;;;16.44;50.86;102393.16;4893630;28;97251;-49
2023/05/30 07:27:39;;;;;;;3.27;1.90;;;;;;;16.48;50.59;102390.94;4894540;28;96780;-48
2023/05/30 07:30:05;;;;;;;3.27;2.00;;;;;;;16.47;50.74;102388.63;4893497;28;97052;-46
2023/05/30 07:32:31;;;;;;;4.33;2.30;;;;;;;16.55;50.83;102384.19;4894844;28;97088;-48
2023/05/30 07:34:56;;;;;;;3.90;2.20;;;;;;;16.63;50.69;102396.38;4892359;28;97143;-50
2023/05/30 07:37:21;;;;;;;2.93;1.40;;;;;;;16.62;50.70;102392.06;4891919;28;97599;-47
2023/05/30 07:39:47;;;;;;;2.50;1.97;;;;;;;16.68;50.61;102383.78;4895105;28;97351;-48
2023/05/30 07:42:12;;;;;;;2.40;1.90;;;;;;;16.75;50.62;102380.56;4893175;28;97213;-53
2023/05/30 07:44:37;;;;;;;2.03;1.83;;;;;;;16.76;50.52;102387.63;4893436;28;97958;-48
2023/05/30 07:47:03;;;;;;;6.30;2.37;;;;;;;16.75;50.62;102383.34;4891533;28;97145;-50
2023/05/30 07:49:28;;;;;;;4.67;1.90;;;;;;;16.83;50.65;102381.63;4893940;28;97310;-51
2023/05/30 07:51:54;;;;;;;2.93;1.90;;;;;;;16.90;50.56;102387.53;4891938;28;99104;-53
2023/05/30 07:54:19;;;;;;;2.50;2.17;;;;;;;16.87;50.58;102376.59;4894804;28;97193;-49
2023/05/30 07:56:45;;;;;;;4.27;2.03;;;;;;;16.90;50.58;102375.63;4894278;28;97089;-47
2023/05/30 07:59:10;;;;;;;2.20;1.80;;;;;;;17.00;50.67;102385.28;4893963;28;96988;-47
2023/05/30 08:01:35;;;;;;;3.83;2.17;;;;;;;17.18;50.51;102376.56;4892432;28;97447;-49
2023/05/30 08:04:01;;;;;;;2.90;2.40;;;;;;;17.28;50.26;102377.16;4895291;28;96967;-48
2023/05/30 08:06:26;;;;;;;4.40;2.37;;;;;;;17.38;49.99;102375.69;4895818;28;98381;-49
2023/05/30 08:08:52;;;;;;;3.43;2.07;;;;;;;17.53;49.95;102377.06;4897987;28;97103;-52
2023/05/30 08:11:17;;;;;;;2.90;1.90;;;;;;;17.47;49.74;102384.59;4902457;28;97929;-49
2023/05/30 08:13:43;;;;;;;2.63;2.07;;;;;;;17.42;49.98;102385.31;4893709;28;98309;-47
2023/05/30 08:16:10;;;;;;;2.40;1.53;;;;;;;17.48;50.12;102386.09;4893557;28;96830;-50
2023/05/30 08:18:36;;;;;;;3.27;1.93;;;;;;;17.61;49.92;102382.88;4892647;28;96973;-46
2023/05/30 08:21:02;;;;;;;5.03;1.90;;;;;;;17.67;49.89;102369.78;4894202;28;97075;-47
2023/05/30 08:23:27;;;;;;;2.23;1.97;;;;;;;17.84;49.69;102376.91;4889098;28;97550;-48
2023/05/30 08:25:53;;;;;;;2.10;2.00;;;;;;;18.02;49.49;102374.97;4892230;28;111923;-47
2023/05/30 08:28:19;;;;;;;2.53;1.97;;;;;;;18.11;49.39;102375.47;4895242;28;97109;-49
2023/05/30 08:30:48;;;;;;;2.87;2.27;;;;;;;18.15;49.27;102386.38;4895861;28;97116;-46
2023/05/30 08:33:15;;;;;;;2.90;1.80;;;;;;;18.12;49.08;102371.44;4892680;28;98937;-47
2023/05/30 08:35:40;;;;;;;2.80;1.83;;;;;;;18.12;49.05;102390.16;4893510;28;97395;-49
2023/05/30 08:38:05;;;;;;;2.90;2.20;;;;;;;18.11;49.19;102388.66;4892565;28;97247;-50
2023/05/30 08:40:33;;;;;;;3.00;2.10;;;;;;;18.11;49.12;102392.19;4892542;28;96882;-52
2023/05/30 08:42:59;;;;;;;2.93;2.40;;;;;;;17.99;48.81;102393.44;4893628;28;97305;-46
2023/05/30 08:45:24;;;;;;;4.17;2.53;;;;;;;17.76;48.95;102395.38;4893331;28;97186;-48
2023/05/30 08:47:56;;;;;;;2.33;2.23;;;;;;;17.75;49.26;102398.66;4892441;28;97055;-46
2023/05/30 08:50:24;;;;;;;5.87;3.10;;;;;;;17.66;49.44;102394.06;4892237;28;96672;-49
2023/05/30 08:52:53;;;;;;;4.70;2.37;;;;;;;17.63;49.28;102406.19;4893415;28;97917;-47
2023/05/30 08:55:33;;;;;;;4.70;2.90;;;;;;;17.72;49.58;102394.84;4895901;28;97342;-49
2023/05/30 08:58:09;;;;;;;3.40;2.20;;;;;;;17.91;49.18;102403.50;4892850;28;96799;-48
2023/05/30 09:00:38;;;;;;;4.80;3.00;;;;;;;17.87;48.94;102397.41;4891443;28;96792;-51
2023/05/30 09:03:05;;;;;;;2.80;2.60;;;;;;;17.90;49.19;102399.22;4893115;28;97524;-47
2023/05/30 09:05:34;;;;;;;2.07;1.97;;;;;;;18.07;49.23;102400.03;4896310;28;97842;-52
2023/05/30 09:08:01;;;;;;;4.17;2.70;;;;;;;18.19;48.83;102396.03;4893543;28;96771;-49
2023/05/30 09:10:27;;;;;;;5.87;3.00;;;;;;;18.28;48.65;102397.81;4891632;28;97053;-49
2023/05/30 09:12:52;;;;;;;6.47;2.23;;;;;;;18.40;48.71;102397.31;4896885;28;97465;-51
2023/05/30 09:15:18;;;;;;;2.77;2.17;;;;;;;18.69;48.53;102404.47;4897072;28;97479;-48
2023/05/30 09:17:43;;;;;;;3.50;2.50;;;;;;;18.80;48.32;102406.50;4897362;28;97196;-49
2023/05/30 09:20:14;;;;;;;3.30;2.30;;;;;;;18.80;48.02;102418.41;4891998;28;97125;-51
2023/05/30 09:22:41;;;;;;;2.87;2.67;;;;;;;18.77;48.11;102419.41;4893363;28;98236;-47
2023/05/30 09:25:07;;;;;;;3.03;2.30;;;;;;;18.89;48.23;102420.19;4895535;28;96866;-47
2023/05/30 09:27:35;;;;;;;4.57;2.63;;;;;;;19.12;47.69;102428.03;4891460;28;96872;-51
2023/05/30 09:30:08;;;;;;;6.43;3.43;;;;;;;19.01;47.32;102438.44;4892507;28;96859;-52
2023/05/30 09:32:36;;;;;;;4.17;2.90;;;;;;;18.78;47.71;102439.72;4891994;28;97763;-48
2023/05/30 09:35:09;;;;;;;5.50;3.63;;;;;;;18.68;47.89;102439.94;4887566;28;98389;-48
2023/05/30 09:37:36;;;;;;;5.40;2.50;;;;;;;18.77;47.96;102441.72;4893194;28;97087;-49
2023/05/30 09:40:15;;;;;;;4.70;2.70;;;;;;;18.89;47.83;102437.69;4894392;28;97546;-50
2023/05/30 09:42:44;;;;;;;3.80;2.97;;;;;;;18.97;48.02;102443.50;4892537;28;97751;-49
2023/05/30 09:45:15;;;;;;;3.23;2.77;;;;;;;18.98;48.02;102445.78;4893636;28;96863;-50
2023/05/30 09:47:46;;;;;;;4.73;3.03;;;;;;;19.06;47.86;102443.25;4890623;28;97278;-49
2023/05/30 09:50:14;;;;;;;4.13;2.90;;;;;;;19.01;47.89;102438.44;4893251;28;98274;-49
2023/05/30 09:52:41;;;;;;;3.80;3.20;;;;;;;19.10;47.95;102440.97;4890599;28;97495;-48
2023/05/30 09:55:08;;;;;;;4.57;2.50;;;;;;;19.34;47.96;102433.59;4893054;28;97114;-49
2023/05/30 09:57:36;;;;;;;6.27;3.17;;;;;;;19.58;47.43;102437.84;4890365;28;97237;-47
2023/05/30 10:00:11;;;;;;;4.40;2.90;;;;;;;19.60;47.11;102438.09;4894232;28;97226;-51
2023/05/30 10:02:41;;;;;;;5.07;3.50;;;;;;;19.67;47.33;102432.00;4892527;28;98311;-49
2023/05/30 10:05:27;;;;;;;3.97;2.93;;;;;;;19.63;46.87;102435.06;4892148;28;97048;-49
2023/05/30 10:07:54;;;;;;;9.63;3.20;;;;;;;19.71;47.15;102430.44;4890965;28;97313;-50
2023/05/30 10:10:20;;;;;;;4.40;2.70;;;;;;;19.79;47.09;102433.50;4891536;28;97507;-49
2023/05/30 10:12:54;;;;;;;6.87;3.57;;;;;;;19.84;47.01;102432.69;4890446;28;98662;-49
2023/05/30 10:15:21;;;;;;;6.53;2.90;;;;;;;19.91;46.95;102434.94;4892570;28;97258;-55
2023/05/30 10:18:06;;;;;;;3.60;3.10;;;;;;;19.90;46.72;102441.78;4896310;28;97836;-46
2023/05/30 10:20:35;;;;;;;4.27;2.80;;;;;;;19.78;46.86;102443.91;4896292;28;96792;-54
2023/05/30 10:23:06;;;;;;;5.97;3.47;;;;;;;19.64;46.83;102438.59;4894250;28;97327;-52
2023/05/30 10:25:33;;;;;;;8.80;3.43;;;;;;;19.53;47.11;102433.06;4894176;28;97674;-50
2023/05/30 10:28:02;;;;;;;4.40;3.10;;;;;;;19.50;47.24;102434.84;4894787;28;97166;-50
2023/05/30 10:30:29;;;;;;;5.80;3.43;;;;;;;19.58;47.08;102437.84;4894407;28;97281;-47
2023/05/30 10:33:09;;;;;;;6.60;3.10;;;;;;;19.60;47.02;102433.28;4895069;28;97184;-46
2023/05/30 10:35:35;;;;;;;7.10;3.40;;;;;;;19.66;47.07;102425.63;4894546;28;97360;-50
2023/05/30 10:38:04;;;;;;;5.23;2.90;;;;;;;19.84;46.86;102432.69;4892512;28;97153;-53
2023/05/30 10:40:48;;;;;;;6.13;3.27;;;;;;;20.07;46.35;102422.94;4895402;28;96808;-48
2023/05/30 10:43:13;;;;;;;3.47;2.60;;;;;;;20.04;46.35;102426.75;4890478;28;100182;-49
2023/05/30 10:45:45;;;;;;;5.50;2.40;;;;;;;19.93;46.37;102416.41;4894222;28;96936;-51
2023/05/30 10:48:48;;;;;;;2.87;2.67;;;;;;;19.91;46.56;102423.78;4892941;28;97589;-49
2023/05/30 10:51:14;;;;;;;3.50;3.17;;;;;;;19.83;46.56;102428.38;4957391;28;96788;-51
2023/05/30 10:53:48;;;;;;;3.87;2.77;;;;;;;19.88;46.61;102422.75;4957156;28;97232;-47
2023/05/30 10:56:26;;;;;;;4.37;2.70;;;;;;;20.11;46.61;102418.59;4921926;28;97115;-47
2023/05/30 10:58:53;;;;;;;3.30;2.90;;;;;;;20.25;46.05;102404.81;4896063;28;97192;-49
2023/05/30 11:01:33;;;;;;;5.50;3.60;;;;;;;20.21;45.83;102419.06;4895643;28;97246;-50
2023/05/30 11:04:02;;;;;;;3.50;2.40;;;;;;;20.21;46.25;102410.69;4895331;28;97214;-50
2023/05/30 11:06:34;;;;;;;2.70;2.50;;;;;;;20.16;46.24;102406.59;4892737;28;98069;-50
2023/05/30 11:09:16;;;;;;;2.90;2.60;;;;;;;20.18;46.21;102406.84;4892454;28;97028;-48
2023/05/30 11:11:47;;;;;;;3.23;2.67;;;;;;;20.11;46.22;102409.44;4893257;28;97095;-51
2023/05/30 11:14:15;;;;;;;3.13;2.83;;;;;;;20.21;46.38;102396.69;4894960;28;97620;-49
2023/05/30 11:16:56;;;;;;;5.60;3.30;;;;;;;20.24;45.88;102401.28;4892339;28;96780;-49
2023/05/30 11:19:26;;;;;;;3.63;2.70;;;;;;;20.15;46.05;102413.50;4893056;28;97028;-48
2023/05/30 11:22:01;;;;;;;3.97;3.00;;;;;;;20.22;46.25;102403.06;4893294;28;96902;-47
2023/05/30 11:24:31;;;;;;;3.00;2.80;;;;;;;20.07;46.11;102414.56;4895124;28;97521;-49
2023/05/30 11:26:58;;;;;;;5.43;3.00;;;;;;;19.86;46.18;102413.38;4892657;28;97135;-50